Saint-Georges-De-Cacouna, Canada
Current Conditions -  °F | °C
As of 7:53 PM on Saturday 20 Dec 2014 (Local Time) from KFVE Reporting Station
Overcast Overcast  
Wind Chill:   Ceiling: 800
Heat Index: 13°   Visibility: 10mi
Dew Point: 10°   Wind: 5mph
Humidity: 88%   Direction: 170°S
Pressure: 30.33"   Gusts: NA
Location:  47.92°N, 69.5°W
Report Text: KFVE 210053Z AUTO 17004KT 10SM OVC008 M11/M12 A3033 RMK AO2 SNB02E46 SLP291 P0000 T11061122
Loading
Personal Weather Stations






























Interactive Weather Map New forecast layout! Learn more

10-Day Weather Forecast

Advertisements
Track Severe Weather on mobile